sensor_id;sensor_type;location;lat;lon;timestamp;P1;durP1;ratioP1;P2;durP2;ratioP2
2001;SDS011;1003;48.002;7.788;2023-08-30T00:01:11;4.33;;;3.17;;
2001;SDS011;1003;48.002;7.788;2023-08-30T00:03:40;3.47;;;3.17;;
2001;SDS011;1003;48.002;7.788;2023-08-30T00:06:07;3.73;;;3.00;;
2001;SDS011;1003;48.002;7.788;2023-08-30T00:08:34;4.27;;;3.20;;
2001;SDS011;1003;48.002;7.788;2023-08-30T00:11:01;3.30;;;3.00;;
2001;SDS011;1003;48.002;7.788;2023-08-30T00:13:29;3.30;;;3.00;;
2001;SDS011;1003;48.002;7.788;2023-08-30T00:15:57;3.43;;;3.13;;
2001;SDS011;1003;48.002;7.788;2023-08-30T00:18:24;3.87;;;2.77;;
2001;SDS011;1003;48.002;7.788;2023-08-30T00:20:52;2.93;;;2.73;;
2001;SDS011;1003;48.002;7.788;2023-08-30T00:23:19;3.27;;;2.97;;
2001;SDS011;1003;48.002;7.788;2023-08-30T00:25:46;6.17;;;3.37;;
2001;SDS011;1003;48.002;7.788;2023-08-30T00:28:13;3.40;;;3.10;;
2001;SDS011;1003;48.002;7.788;2023-08-30T00:30:40;3.67;;;3.20;;
2001;SDS011;1003;48.002;7.788;2023-08-30T00:33:09;4.83;;;3.10;;
2001;SDS011;1003;48.002;7.788;2023-08-30T00:35:36;3.30;;;3.00;;
2001;SDS011;1003;48.002;7.788;2023-08-30T00:38:06;4.23;;;3.20;;
2001;SDS011;1003;48.002;7.788;2023-08-30T00:40:37;3.73;;;3.30;;
2001;SDS011;1003;48.002;7.788;2023-08-30T00:43:05;4.23;;;3.07;;
2001;SDS011;1003;48.002;7.788;2023-08-30T00:45:32;3.27;;;2.97;;
2001;SDS011;1003;48.002;7.788;2023-08-30T00:48:03;3.90;;;3.17;;
2001;SDS011;1003;48.002;7.788;2023-08-30T00:50:32;3.40;;;3.10;;
2001;SDS011;1003;48.002;7.788;2023-08-30T00:52:59;3.20;;;3.00;;
2001;SDS011;1003;48.002;7.788;2023-08-30T00:55:31;3.80;;;3.30;;
2001;SDS011;1003;48.002;7.788;2023-08-30T00:57:59;3.50;;;3.20;;
2001;SDS011;1003;48.002;7.788;2023-08-30T01:00:27;3.47;;;3.17;;
2001;SDS011;1003;48.002;7.788;2023-08-30T01:02:54;3.43;;;3.13;;
2001;SDS011;1003;48.002;7.788;2023-08-30T01:05:22;2.97;;;2.77;;
2001;SDS011;1003;48.002;7.788;2023-08-30T01:07:49;3.57;;;3.27;;
2001;SDS011;1003;48.002;7.788;2023-08-30T01:10:17;3.90;;;3.50;;
2001;SDS011;1003;48.002;7.788;2023-08-30T01:12:56;4.50;;;3.37;;
2001;SDS011;1003;48.002;7.788;2023-08-30T01:15:32;4.57;;;3.20;;
2001;SDS011;1003;48.002;7.788;2023-08-30T01:18:01;3.53;;;3.10;;
2001;SDS011;1003;48.002;7.788;2023-08-30T01:20:31;4.83;;;3.20;;
2001;SDS011;1003;48.002;7.788;2023-08-30T01:23:05;4.40;;;3.30;;
2001;SDS011;1003;48.002;7.788;2023-08-30T01:25:43;3.40;;;2.97;;
2001;SDS011;1003;48.002;7.788;2023-08-30T01:28:25;3.63;;;3.33;;
2001;SDS011;1003;48.002;7.788;2023-08-30T01:30:56;4.13;;;3.73;;
2001;SDS011;1003;48.002;7.788;2023-08-30T01:33:25;4.13;;;3.40;;
2001;SDS011;1003;48.002;7.788;2023-08-30T01:35:54;4.30;;;3.70;;
2001;SDS011;1003;48.002;7.788;2023-08-30T01:38:23;3.87;;;3.40;;
2001;SDS011;1003;48.002;7.788;2023-08-30T01:40:52;6.17;;;3.80;;
2001;SDS011;1003;48.002;7.788;2023-08-30T01:43:22;4.20;;;3.80;;
2001;SDS011;1003;48.002;7.788;2023-08-30T01:45:53;4.87;;;3.50;;
2001;SDS011;1003;48.002;7.788;2023-08-30T01:48:22;4.00;;;3.60;;
2001;SDS011;1003;48.002;7.788;2023-08-30T01:50:52;4.80;;;3.60;;
2001;SDS011;1003;48.002;7.788;2023-08-30T01:53:24;5.07;;;3.63;;
2001;SDS011;1003;48.002;7.788;2023-08-30T01:55:52;4.83;;;3.57;;
2001;SDS011;1003;48.002;7.788;2023-08-30T01:58:19;3.47;;;3.13;;
2001;SDS011;1003;48.002;7.788;2023-08-30T02:00:47;5.00;;;3.53;;
2001;SDS011;1003;48.002;7.788;2023-08-30T02:03:14;4.43;;;3.73;;
2001;SDS011;1003;48.002;7.788;2023-08-30T02:05:44;3.50;;;3.20;;
2001;SDS011;1003;48.002;7.788;2023-08-30T02:08:24;4.33;;;3.07;;
2001;SDS011;1003;48.002;7.788;2023-08-30T02:11:02;4.17;;;3.23;;
2001;SDS011;1003;48.002;7.788;2023-08-30T02:13:36;3.63;;;3.07;;
2001;SDS011;1003;48.002;7.788;2023-08-30T02:16:07;3.80;;;3.03;;
2001;SDS011;1003;48.002;7.788;2023-08-30T02:18:36;3.37;;;3.07;;
2001;SDS011;1003;48.002;7.788;2023-08-30T02:21:04;3.90;;;3.10;;
2001;SDS011;1003;48.002;7.788;2023-08-30T02:23:31;3.60;;;3.00;;
2001;SDS011;1003;48.002;7.788;2023-08-30T02:25:59;4.43;;;3.20;;
2001;SDS011;1003;48.002;7.788;2023-08-30T02:28:28;3.10;;;2.80;;
2001;SDS011;1003;48.002;7.788;2023-08-30T02:30:55;3.00;;;2.67;;
2001;SDS011;1003;48.002;7.788;2023-08-30T02:33:23;3.53;;;3.23;;
2001;SDS011;1003;48.002;7.788;2023-08-30T02:35:50;3.30;;;3.00;;
2001;SDS011;1003;48.002;7.788;2023-08-30T02:38:18;5.00;;;3.17;;
2001;SDS011;1003;48.002;7.788;2023-08-30T02:40:45;3.80;;;3.40;;
2001;SDS011;1003;48.002;7.788;2023-08-30T02:43:12;4.50;;;3.40;;
2001;SDS011;1003;48.002;7.788;2023-08-30T02:45:39;3.93;;;3.53;;
2001;SDS011;1003;48.002;7.788;2023-08-30T02:48:07;4.93;;;3.33;;
2001;SDS011;1003;48.002;7.788;2023-08-30T02:50:35;3.67;;;3.37;;
2001;SDS011;1003;48.002;7.788;2023-08-30T02:53:02;4.80;;;3.50;;
2001;SDS011;1003;48.002;7.788;2023-08-30T02:55:30;4.10;;;3.33;;
2001;SDS011;1003;48.002;7.788;2023-08-30T02:57:57;3.53;;;3.23;;
2001;SDS011;1003;48.002;7.788;2023-08-30T03:00:24;3.80;;;3.40;;
2001;SDS011;1003;48.002;7.788;2023-08-30T03:02:51;3.37;;;3.00;;
2001;SDS011;1003;48.002;7.788;2023-08-30T03:05:18;3.77;;;3.43;;
2001;SDS011;1003;48.002;7.788;2023-08-30T03:07:47;4.97;;;3.57;;
2001;SDS011;1003;48.002;7.788;2023-08-30T03:10:14;3.57;;;3.27;;
2001;SDS011;1003;48.002;7.788;2023-08-30T03:12:41;3.33;;;3.03;;
2001;SDS011;1003;48.002;7.788;2023-08-30T03:15:08;3.50;;;2.97;;
2001;SDS011;1003;48.002;7.788;2023-08-30T03:17:36;3.30;;;3.00;;
2001;SDS011;1003;48.002;7.788;2023-08-30T03:20:03;4.20;;;3.23;;
2001;SDS011;1003;48.002;7.788;2023-08-30T03:22:32;4.70;;;3.40;;
2001;SDS011;1003;48.002;7.788;2023-08-30T03:25:01;4.83;;;3.60;;
2001;SDS011;1003;48.002;7.788;2023-08-30T03:27:28;3.47;;;3.17;;
2001;SDS011;1003;48.002;7.788;2023-08-30T03:29:55;3.73;;;3.30;;
2001;SDS011;1003;48.002;7.788;2023-08-30T03:32:22;3.57;;;3.27;;
2001;SDS011;1003;48.002;7.788;2023-08-30T03:34:49;3.87;;;3.50;;
2001;SDS011;1003;48.002;7.788;2023-08-30T03:37:16;3.63;;;3.30;;
2001;SDS011;1003;48.002;7.788;2023-08-30T03:39:43;3.80;;;3.40;;
2001;SDS011;1003;48.002;7.788;2023-08-30T03:42:12;4.93;;;3.80;;
2001;SDS011;1003;48.002;7.788;2023-08-30T03:44:39;4.30;;;3.53;;
2001;SDS011;1003;48.002;7.788;2023-08-30T03:47:06;3.80;;;3.40;;
2001;SDS011;1003;48.002;7.788;2023-08-30T03:49:34;3.80;;;3.50;;
2001;SDS011;1003;48.002;7.788;2023-08-30T03:52:01;3.90;;;3.43;;
2001;SDS011;1003;48.002;7.788;2023-08-30T03:54:29;4.30;;;3.27;;
2001;SDS011;1003;48.002;7.788;2023-08-30T03:56:56;3.70;;;3.10;;
2001;SDS011;1003;48.002;7.788;2023-08-30T03:59:24;4.60;;;3.50;;
2001;SDS011;1003;48.002;7.788;2023-08-30T04:01:53;6.00;;;3.57;;
2001;SDS011;1003;48.002;7.788;2023-08-30T04:04:20;3.70;;;3.27;;
2001;SDS011;1003;48.002;7.788;2023-08-30T04:06:48;4.40;;;3.37;;
2001;SDS011;1003;48.002;7.788;2023-08-30T04:09:15;3.83;;;3.33;;
2001;SDS011;1003;48.002;7.788;2023-08-30T04:11:42;3.57;;;3.23;;
2001;SDS011;1003;48.002;7.788;2023-08-30T04:14:09;5.17;;;3.10;;
2001;SDS011;1003;48.002;7.788;2023-08-30T04:16:38;3.37;;;3.07;;
2001;SDS011;1003;48.002;7.788;2023-08-30T04:19:05;3.30;;;2.80;;
2001;SDS011;1003;48.002;7.788;2023-08-30T04:21:32;3.57;;;3.27;;
2001;SDS011;1003;48.002;7.788;2023-08-30T04:23:59;3.40;;;3.10;;
2001;SDS011;1003;48.002;7.788;2023-08-30T04:26:26;3.30;;;3.00;;
2001;SDS011;1003;48.002;7.788;2023-08-30T04:28:53;3.40;;;3.10;;
2001;SDS011;1003;48.002;7.788;2023-08-30T04:31:20;3.30;;;3.00;;
2001;SDS011;1003;48.002;7.788;2023-08-30T04:33:48;4.23;;;3.10;;
2001;SDS011;1003;48.002;7.788;2023-08-30T04:36:17;3.10;;;2.80;;
2001;SDS011;1003;48.002;7.788;2023-08-30T04:38:44;3.50;;;3.20;;
2001;SDS011;1003;48.002;7.788;2023-08-30T04:41:11;4.10;;;2.90;;
2001;SDS011;1003;48.002;7.788;2023-08-30T04:43:38;3.40;;;3.10;;
2001;SDS011;1003;48.002;7.788;2023-08-30T04:46:05;3.67;;;3.30;;
2001;SDS011;1003;48.002;7.788;2023-08-30T04:48:32;2.90;;;2.60;;
2001;SDS011;1003;48.002;7.788;2023-08-30T04:51:01;3.00;;;2.80;;
2001;SDS011;1003;48.002;7.788;2023-08-30T04:53:30;3.73;;;2.80;;
2001;SDS011;1003;48.002;7.788;2023-08-30T04:55:58;3.17;;;2.90;;
2001;SDS011;1003;48.002;7.788;2023-08-30T04:58:25;3.43;;;3.10;;
2001;SDS011;1003;48.002;7.788;2023-08-30T05:00:54;3.30;;;3.00;;
2001;SDS011;1003;48.002;7.788;2023-08-30T05:03:22;4.07;;;2.90;;
2001;SDS011;1003;48.002;7.788;2023-08-30T05:05:49;4.00;;;2.80;;
2001;SDS011;1003;48.002;7.788;2023-08-30T05:08:18;3.07;;;2.70;;
2001;SDS011;1003;48.002;7.788;2023-08-30T05:10:45;3.43;;;2.97;;
2001;SDS011;1003;48.002;7.788;2023-08-30T05:13:15;5.07;;;3.00;;
2001;SDS011;1003;48.002;7.788;2023-08-30T05:15:42;3.70;;;2.93;;
2001;SDS011;1003;48.002;7.788;2023-08-30T05:18:09;3.33;;;2.70;;
2001;SDS011;1003;48.002;7.788;2023-08-30T05:20:37;3.20;;;2.83;;
2001;SDS011;1003;48.002;7.788;2023-08-30T05:23:04;2.77;;;2.57;;
2001;SDS011;1003;48.002;7.788;2023-08-30T05:25:33;4.47;;;3.13;;
2001;SDS011;1003;48.002;7.788;2023-08-30T05:28:00;4.37;;;3.07;;
2001;SDS011;1003;48.002;7.788;2023-08-30T05:30:28;4.63;;;2.77;;
2001;SDS011;1003;48.002;7.788;2023-08-30T05:32:55;3.50;;;3.20;;
2001;SDS011;1003;48.002;7.788;2023-08-30T05:35:22;3.47;;;2.90;;
2001;SDS011;1003;48.002;7.788;2023-08-30T05:37:49;3.80;;;3.10;;
2001;SDS011;1003;48.002;7.788;2023-08-30T05:40:20;3.20;;;2.90;;
2001;SDS011;1003;48.002;7.788;2023-08-30T05:42:48;3.30;;;3.00;;
2001;SDS011;1003;48.002;7.788;2023-08-30T05:45:15;2.90;;;2.70;;
2001;SDS011;1003;48.002;7.788;2023-08-30T05:47:42;3.10;;;2.80;;
2001;SDS011;1003;48.002;7.788;2023-08-30T05:50:09;4.83;;;3.30;;
2001;SDS011;1003;48.002;7.788;2023-08-30T05:52:36;3.40;;;3.10;;
2001;SDS011;1003;48.002;7.788;2023-08-30T05:55:06;3.10;;;2.80;;
2001;SDS011;1003;48.002;7.788;2023-08-30T05:57:34;3.03;;;2.80;;
2001;SDS011;1003;48.002;7.788;2023-08-30T06:00:03;3.13;;;2.60;;
2001;SDS011;1003;48.002;7.788;2023-08-30T06:02:32;3.43;;;2.70;;
2001;SDS011;1003;48.002;7.788;2023-08-30T06:05:00;2.87;;;2.60;;
2001;SDS011;1003;48.002;7.788;2023-08-30T06:07:30;2.93;;;2.70;;
2001;SDS011;1003;48.002;7.788;2023-08-30T06:09:57;2.53;;;2.33;;
2001;SDS011;1003;48.002;7.788;2023-08-30T06:12:25;3.73;;;2.30;;
2001;SDS011;1003;48.002;7.788;2023-08-30T06:14:52;3.17;;;2.60;;
2001;SDS011;1003;48.002;7.788;2023-08-30T06:17:21;3.10;;;2.60;;
2001;SDS011;1003;48.002;7.788;2023-08-30T06:19:48;2.77;;;2.50;;
2001;SDS011;1003;48.002;7.788;2023-08-30T06:22:15;5.07;;;2.73;;
2001;SDS011;1003;48.002;7.788;2023-08-30T06:24:42;3.57;;;2.50;;
2001;SDS011;1003;48.002;7.788;2023-08-30T06:27:09;3.20;;;2.50;;
2001;SDS011;1003;48.002;7.788;2023-08-30T06:29:36;2.73;;;2.40;;
2001;SDS011;1003;48.002;7.788;2023-08-30T06:32:04;3.03;;;2.50;;
2001;SDS011;1003;48.002;7.788;2023-08-30T06:34:33;2.80;;;2.60;;
2001;SDS011;1003;48.002;7.788;2023-08-30T06:37:00;3.30;;;2.80;;
2001;SDS011;1003;48.002;7.788;2023-08-30T06:39:32;4.00;;;2.90;;
2001;SDS011;1003;48.002;7.788;2023-08-30T06:42:00;2.77;;;2.57;;
2001;SDS011;1003;48.002;7.788;2023-08-30T06:44:27;2.47;;;2.27;;
2001;SDS011;1003;48.002;7.788;2023-08-30T06:46:55;3.50;;;2.40;;
2001;SDS011;1003;48.002;7.788;2023-08-30T06:49:22;4.57;;;2.60;;
2001;SDS011;1003;48.002;7.788;2023-08-30T06:51:50;3.00;;;2.50;;
2001;SDS011;1003;48.002;7.788;2023-08-30T06:54:17;3.03;;;2.70;;
2001;SDS011;1003;48.002;7.788;2023-08-30T06:56:47;2.80;;;2.60;;
2001;SDS011;1003;48.002;7.788;2023-08-30T06:59:24;2.93;;;2.63;;
2001;SDS011;1003;48.002;7.788;2023-08-30T07:01:51;3.90;;;2.70;;
2001;SDS011;1003;48.002;7.788;2023-08-30T07:04:18;3.33;;;2.37;;
2001;SDS011;1003;48.002;7.788;2023-08-30T07:06:46;3.27;;;2.60;;
2001;SDS011;1003;48.002;7.788;2023-08-30T07:09:14;4.43;;;2.60;;
2001;SDS011;1003;48.002;7.788;2023-08-30T07:11:42;3.60;;;2.40;;
2001;SDS011;1003;48.002;7.788;2023-08-30T07:14:10;3.13;;;2.83;;
2001;SDS011;1003;48.002;7.788;2023-08-30T07:16:39;4.53;;;2.60;;
2001;SDS011;1003;48.002;7.788;2023-08-30T07:19:06;3.20;;;2.50;;
2001;SDS011;1003;48.002;7.788;2023-08-30T07:21:34;3.00;;;2.70;;
2001;SDS011;1003;48.002;7.788;2023-08-30T07:24:04;5.47;;;3.10;;
2001;SDS011;1003;48.002;7.788;2023-08-30T07:26:34;3.43;;;2.90;;
2001;SDS011;1003;48.002;7.788;2023-08-30T07:29:02;3.37;;;2.60;;
2001;SDS011;1003;48.002;7.788;2023-08-30T07:31:31;3.20;;;2.70;;
2001;SDS011;1003;48.002;7.788;2023-08-30T07:33:58;3.03;;;2.80;;
2001;SDS011;1003;48.002;7.788;2023-08-30T07:36:25;3.00;;;2.70;;
2001;SDS011;1003;48.002;7.788;2023-08-30T07:38:53;2.90;;;2.60;;
2001;SDS011;1003;48.002;7.788;2023-08-30T07:41:20;2.63;;;2.43;;
2001;SDS011;1003;48.002;7.788;2023-08-30T07:43:49;2.27;;;2.10;;
2001;SDS011;1003;48.002;7.788;2023-08-30T07:46:16;3.20;;;2.63;;
2001;SDS011;1003;48.002;7.788;2023-08-30T07:48:43;2.43;;;2.23;;
2001;SDS011;1003;48.002;7.788;2023-08-30T07:51:10;2.80;;;2.60;;
2001;SDS011;1003;48.002;7.788;2023-08-30T07:53:37;2.90;;;2.60;;
2001;SDS011;1003;48.002;7.788;2023-08-30T07:56:05;2.63;;;2.43;;
2001;SDS011;1003;48.002;7.788;2023-08-30T07:58:32;2.80;;;2.50;;
2001;SDS011;1003;48.002;7.788;2023-08-30T08:01:00;3.20;;;2.90;;
2001;SDS011;1003;48.002;7.788;2023-08-30T08:03:28;2.67;;;2.47;;
2001;SDS011;1003;48.002;7.788;2023-08-30T08:05:55;5.20;;;2.80;;
2001;SDS011;1003;48.002;7.788;2023-08-30T08:08:24;3.27;;;2.67;;
2001;SDS011;1003;48.002;7.788;2023-08-30T08:10:51;3.07;;;2.70;;
2001;SDS011;1003;48.002;7.788;2023-08-30T08:13:18;2.70;;;2.50;;
2001;SDS011;1003;48.002;7.788;2023-08-30T08:15:45;3.10;;;2.80;;
2001;SDS011;1003;48.002;7.788;2023-08-30T08:18:13;3.00;;;2.70;;
2001;SDS011;1003;48.002;7.788;2023-08-30T08:20:40;2.83;;;2.63;;
2001;SDS011;1003;48.002;7.788;2023-08-30T08:23:11;2.83;;;2.53;;
2001;SDS011;1003;48.002;7.788;2023-08-30T08:25:38;2.80;;;2.60;;
2001;SDS011;1003;48.002;7.788;2023-08-30T08:28:05;4.10;;;2.83;;
2001;SDS011;1003;48.002;7.788;2023-08-30T08:30:32;3.93;;;2.63;;
2001;SDS011;1003;48.002;7.788;2023-08-30T08:33:00;6.40;;;2.83;;
2001;SDS011;1003;48.002;7.788;2023-08-30T08:35:28;2.90;;;2.70;;
2001;SDS011;1003;48.002;7.788;2023-08-30T08:37:55;2.90;;;2.70;;
2001;SDS011;1003;48.002;7.788;2023-08-30T08:40:22;4.77;;;2.50;;
2001;SDS011;1003;48.002;7.788;2023-08-30T08:42:49;2.70;;;2.50;;
2001;SDS011;1003;48.002;7.788;2023-08-30T08:45:20;3.87;;;2.93;;
2001;SDS011;1003;48.002;7.788;2023-08-30T08:47:49;3.83;;;3.30;;
2001;SDS011;1003;48.002;7.788;2023-08-30T08:50:17;3.60;;;2.97;;
2001;SDS011;1003;48.002;7.788;2023-08-30T08:52:46;3.40;;;3.10;;
2001;SDS011;1003;48.002;7.788;2023-08-30T08:55:14;3.37;;;3.00;;
2001;SDS011;1003;48.002;7.788;2023-08-30T08:57:42;4.07;;;3.00;;
2001;SDS011;1003;48.002;7.788;2023-08-30T09:00:12;3.30;;;2.87;;
2001;SDS011;1003;48.002;7.788;2023-08-30T09:02:41;3.60;;;2.63;;
2001;SDS011;1003;48.002;7.788;2023-08-30T09:05:09;2.90;;;2.60;;
2001;SDS011;1003;48.002;7.788;2023-08-30T09:07:37;3.77;;;2.70;;
2001;SDS011;1003;48.002;7.788;2023-08-30T09:10:07;3.93;;;2.70;;
2001;SDS011;1003;48.002;7.788;2023-08-30T09:12:35;3.10;;;2.80;;
2001;SDS011;1003;48.002;7.788;2023-08-30T09:15:02;3.07;;;2.50;;
2001;SDS011;1003;48.002;7.788;2023-08-30T09:17:37;4.27;;;3.00;;
2001;SDS011;1003;48.002;7.788;2023-08-30T09:20:06;3.13;;;2.90;;
2001;SDS011;1003;48.002;7.788;2023-08-30T09:22:38;2.60;;;2.40;;
2001;SDS011;1003;48.002;7.788;2023-08-30T09:25:08;3.37;;;2.70;;
2001;SDS011;1003;48.002;7.788;2023-08-30T09:27:36;3.63;;;2.57;;
2001;SDS011;1003;48.002;7.788;2023-08-30T09:30:06;4.47;;;2.90;;
2001;SDS011;1003;48.002;7.788;2023-08-30T09:32:39;2.80;;;2.60;;
2001;SDS011;1003;48.002;7.788;2023-08-30T09:35:08;2.67;;;2.47;;
2001;SDS011;1003;48.002;7.788;2023-08-30T09:37:36;3.00;;;2.70;;
2001;SDS011;1003;48.002;7.788;2023-08-30T09:40:03;3.03;;;2.30;;
2001;SDS011;1003;48.002;7.788;2023-08-30T09:42:33;3.73;;;2.70;;
2001;SDS011;1003;48.002;7.788;2023-08-30T09:45:01;3.30;;;3.00;;
2001;SDS011;1003;48.002;7.788;2023-08-30T09:47:31;3.17;;;2.63;;
2001;SDS011;1003;48.002;7.788;2023-08-30T09:50:00;2.93;;;2.40;;
2001;SDS011;1003;48.002;7.788;2023-08-30T09:52:29;3.00;;;2.70;;
2001;SDS011;1003;48.002;7.788;2023-08-30T09:54:58;2.70;;;2.50;;
2001;SDS011;1003;48.002;7.788;2023-08-30T09:57:26;2.73;;;2.50;;
2001;SDS011;1003;48.002;7.788;2023-08-30T09:59:56;2.80;;;2.60;;
2001;SDS011;1003;48.002;7.788;2023-08-30T10:02:25;2.57;;;2.37;;
2001;SDS011;1003;48.002;7.788;2023-08-30T10:04:53;2.50;;;2.30;;
2001;SDS011;1003;48.002;7.788;2023-08-30T10:07:21;2.50;;;2.30;;
2001;SDS011;1003;48.002;7.788;2023-08-30T10:09:50;2.70;;;2.30;;
2001;SDS011;1003;48.002;7.788;2023-08-30T10:12:19;2.90;;;2.50;;
2001;SDS011;1003;48.002;7.788;2023-08-30T10:14:47;2.30;;;2.10;;
2001;SDS011;1003;48.002;7.788;2023-08-30T10:17:17;2.30;;;2.10;;
2001;SDS011;1003;48.002;7.788;2023-08-30T10:19:48;3.47;;;2.27;;
2001;SDS011;1003;48.002;7.788;2023-08-30T10:22:19;3.10;;;2.10;;
2001;SDS011;1003;48.002;7.788;2023-08-30T10:24:50;2.63;;;2.43;;
2001;SDS011;1003;48.002;7.788;2023-08-30T10:27:22;2.40;;;2.20;;
2001;SDS011;1003;48.002;7.788;2023-08-30T10:29:52;2.77;;;2.53;;
2001;SDS011;1003;48.002;7.788;2023-08-30T10:32:22;2.87;;;2.50;;
2001;SDS011;1003;48.002;7.788;2023-08-30T10:34:50;3.70;;;3.30;;
2001;SDS011;1003;48.002;7.788;2023-08-30T10:37:21;2.23;;;2.03;;
2001;SDS011;1003;48.002;7.788;2023-08-30T10:39:50;6.17;;;4.60;;
2001;SDS011;1003;48.002;7.788;2023-08-30T10:42:21;2.70;;;2.50;;
2001;SDS011;1003;48.002;7.788;2023-08-30T10:44:49;2.13;;;1.93;;
2001;SDS011;1003;48.002;7.788;2023-08-30T10:47:18;2.33;;;2.10;;
2001;SDS011;1003;48.002;7.788;2023-08-30T10:49:48;2.17;;;2.00;;
2001;SDS011;1003;48.002;7.788;2023-08-30T10:52:15;2.10;;;2.00;;
2001;SDS011;1003;48.002;7.788;2023-08-30T10:54:45;2.97;;;2.00;;
2001;SDS011;1003;48.002;7.788;2023-08-30T10:57:13;2.20;;;2.00;;
2001;SDS011;1003;48.002;7.788;2023-08-30T10:59:47;2.60;;;2.33;;
2001;SDS011;1003;48.002;7.788;2023-08-30T11:02:32;2.90;;;2.70;;
2001;SDS011;1003;48.002;7.788;2023-08-30T11:05:02;2.77;;;2.40;;
2001;SDS011;1003;48.002;7.788;2023-08-30T11:07:32;2.67;;;2.27;;
2001;SDS011;1003;48.002;7.788;2023-08-30T11:10:00;2.83;;;2.23;;
2001;SDS011;1003;48.002;7.788;2023-08-30T11:12:30;2.20;;;2.10;;
2001;SDS011;1003;48.002;7.788;2023-08-30T11:15:00;2.60;;;2.40;;
2001;SDS011;1003;48.002;7.788;2023-08-30T11:17:28;2.40;;;2.20;;
2001;SDS011;1003;48.002;7.788;2023-08-30T11:20:04;2.60;;;2.40;;
2001;SDS011;1003;48.002;7.788;2023-08-30T11:22:35;3.50;;;2.40;;
2001;SDS011;1003;48.002;7.788;2023-08-30T11:25:04;2.77;;;2.57;;
2001;SDS011;1003;48.002;7.788;2023-08-30T11:27:33;2.37;;;2.17;;
2001;SDS011;1003;48.002;7.788;2023-08-30T11:30:00;3.83;;;2.50;;
2001;SDS011;1003;48.002;7.788;2023-08-30T11:32:31;2.50;;;2.30;;
2001;SDS011;1003;48.002;7.788;2023-08-30T11:35:00;2.67;;;2.47;;
2001;SDS011;1003;48.002;7.788;2023-08-30T11:37:28;2.37;;;2.27;;
2001;SDS011;1003;48.002;7.788;2023-08-30T11:39:56;3.63;;;2.50;;
2001;SDS011;1003;48.002;7.788;2023-08-30T11:42:25;2.87;;;2.67;;
2001;SDS011;1003;48.002;7.788;2023-08-30T11:44:52;4.00;;;2.57;;
2001;SDS011;1003;48.002;7.788;2023-08-30T11:47:20;3.10;;;2.50;;
2001;SDS011;1003;48.002;7.788;2023-08-30T11:49:49;2.97;;;2.30;;
2001;SDS011;1003;48.002;7.788;2023-08-30T11:52:19;2.60;;;2.40;;
2001;SDS011;1003;48.002;7.788;2023-08-30T11:54:49;2.80;;;2.60;;
2001;SDS011;1003;48.002;7.788;2023-08-30T11:57:17;2.50;;;2.30;;
2001;SDS011;1003;48.002;7.788;2023-08-30T11:59:45;3.40;;;3.10;;
2001;SDS011;1003;48.002;7.788;2023-08-30T12:02:15;2.83;;;2.43;;
2001;SDS011;1003;48.002;7.788;2023-08-30T12:04:44;2.70;;;2.50;;
2001;SDS011;1003;48.002;7.788;2023-08-30T12:07:20;2.73;;;2.43;;
2001;SDS011;1003;48.002;7.788;2023-08-30T12:09:50;2.67;;;2.47;;
2001;SDS011;1003;48.002;7.788;2023-08-30T12:12:17;2.60;;;2.40;;
2001;SDS011;1003;48.002;7.788;2023-08-30T12:14:45;3.13;;;2.30;;
2001;SDS011;1003;48.002;7.788;2023-08-30T12:17:21;2.30;;;2.10;;
2001;SDS011;1003;48.002;7.788;2023-08-30T12:19:54;2.17;;;2.00;;
2001;SDS011;1003;48.002;7.788;2023-08-30T12:22:22;2.10;;;1.90;;
2001;SDS011;1003;48.002;7.788;2023-08-30T12:24:50;2.60;;;2.40;;
2001;SDS011;1003;48.002;7.788;2023-08-30T12:27:18;2.63;;;2.40;;
2001;SDS011;1003;48.002;7.788;2023-08-30T12:29:45;2.50;;;2.30;;
2001;SDS011;1003;48.002;7.788;2023-08-30T12:32:12;2.50;;;2.30;;
2001;SDS011;1003;48.002;7.788;2023-08-30T12:34:39;2.53;;;2.20;;
2001;SDS011;1003;48.002;7.788;2023-08-30T12:37:06;2.00;;;1.90;;
2001;SDS011;1003;48.002;7.788;2023-08-30T12:39:33;2.13;;;1.93;;
2001;SDS011;1003;48.002;7.788;2023-08-30T12:42:01;2.40;;;2.20;;
2001;SDS011;1003;48.002;7.788;2023-08-30T12:44:29;2.20;;;2.10;;
2001;SDS011;1003;48.002;7.788;2023-08-30T12:46:56;2.17;;;2.00;;
2001;SDS011;1003;48.002;7.788;2023-08-30T12:49:23;4.07;;;2.67;;
2001;SDS011;1003;48.002;7.788;2023-08-30T12:51:50;2.07;;;1.97;;
2001;SDS011;1003;48.002;7.788;2023-08-30T12:54:18;2.17;;;2.07;;
2001;SDS011;1003;48.002;7.788;2023-08-30T12:56:45;2.20;;;2.00;;
2001;SDS011;1003;48.002;7.788;2023-08-30T12:59:13;2.10;;;1.90;;
2001;SDS011;1003;48.002;7.788;2023-08-30T13:01:40;2.80;;;2.10;;
2001;SDS011;1003;48.002;7.788;2023-08-30T13:04:07;2.07;;;1.97;;
2001;SDS011;1003;48.002;7.788;2023-08-30T13:06:34;2.60;;;2.40;;
2001;SDS011;1003;48.002;7.788;2023-08-30T13:09:01;2.20;;;2.00;;
2001;SDS011;1003;48.002;7.788;2023-08-30T13:11:29;2.10;;;1.90;;
2001;SDS011;1003;48.002;7.788;2023-08-30T13:13:57;2.60;;;2.13;;
2001;SDS011;1003;48.002;7.788;2023-08-30T13:16:25;2.17;;;2.00;;
2001;SDS011;1003;48.002;7.788;2023-08-30T13:18:52;2.10;;;2.00;;
2001;SDS011;1003;48.002;7.788;2023-08-30T13:21:19;2.27;;;2.00;;
2001;SDS011;1003;48.002;7.788;2023-08-30T13:23:46;2.20;;;2.10;;
2001;SDS011;1003;48.002;7.788;2023-08-30T13:26:13;2.03;;;1.93;;
2001;SDS011;1003;48.002;7.788;2023-08-30T13:28:40;2.87;;;2.40;;
2001;SDS011;1003;48.002;7.788;2023-08-30T13:31:07;2.40;;;1.90;;
2001;SDS011;1003;48.002;7.788;2023-08-30T13:33:35;2.20;;;2.00;;
2001;SDS011;1003;48.002;7.788;2023-08-30T13:36:02;2.23;;;2.10;;
2001;SDS011;1003;48.002;7.788;2023-08-30T13:38:30;2.13;;;1.80;;
2001;SDS011;1003;48.002;7.788;2023-08-30T13:40:58;2.83;;;2.10;;
2001;SDS011;1003;48.002;7.788;2023-08-30T13:43:25;2.30;;;2.10;;
2001;SDS011;1003;48.002;7.788;2023-08-30T13:45:56;2.00;;;1.90;;
2001;SDS011;1003;48.002;7.788;2023-08-30T13:48:24;2.00;;;1.90;;
2001;SDS011;1003;48.002;7.788;2023-08-30T13:50:52;2.73;;;2.13;;
2001;SDS011;1003;48.002;7.788;2023-08-30T13:53:19;1.70;;;1.60;;
2001;SDS011;1003;48.002;7.788;2023-08-30T13:55:46;1.50;;;1.40;;
2001;SDS011;1003;48.002;7.788;2023-08-30T13:58:14;1.70;;;1.60;;
2001;SDS011;1003;48.002;7.788;2023-08-30T14:00:41;2.00;;;1.80;;
2001;SDS011;1003;48.002;7.788;2023-08-30T14:03:09;1.70;;;1.60;;
2001;SDS011;1003;48.002;7.788;2023-08-30T14:05:36;2.27;;;1.90;;
2001;SDS011;1003;48.002;7.788;2023-08-30T14:08:06;1.57;;;1.47;;
2001;SDS011;1003;48.002;7.788;2023-08-30T14:10:33;1.50;;;1.40;;
2001;SDS011;1003;48.002;7.788;2023-08-30T14:13:03;1.90;;;1.80;;
2001;SDS011;1003;48.002;7.788;2023-08-30T14:15:31;1.80;;;1.70;;
2001;SDS011;1003;48.002;7.788;2023-08-30T14:17:58;1.60;;;1.50;;
2001;SDS011;1003;48.002;7.788;2023-08-30T14:20:25;1.70;;;1.60;;
2001;SDS011;1003;48.002;7.788;2023-08-30T14:22:52;1.73;;;1.53;;
2001;SDS011;1003;48.002;7.788;2023-08-30T14:25:20;1.40;;;1.30;;
2001;SDS011;1003;48.002;7.788;2023-08-30T14:27:47;1.73;;;1.63;;
2001;SDS011;1003;48.002;7.788;2023-08-30T14:30:14;2.63;;;1.70;;
2001;SDS011;1003;48.002;7.788;2023-08-30T14:32:45;1.70;;;1.60;;
2001;SDS011;1003;48.002;7.788;2023-08-30T14:35:12;1.73;;;1.63;;
2001;SDS011;1003;48.002;7.788;2023-08-30T14:37:39;2.57;;;2.00;;
2001;SDS011;1003;48.002;7.788;2023-08-30T14:40:06;2.10;;;2.00;;
2001;SDS011;1003;48.002;7.788;2023-08-30T14:42:36;1.80;;;1.70;;
2001;SDS011;1003;48.002;7.788;2023-08-30T14:45:03;2.33;;;1.80;;
2001;SDS011;1003;48.002;7.788;2023-08-30T14:47:32;1.87;;;1.77;;
2001;SDS011;1003;48.002;7.788;2023-08-30T14:50:00;1.70;;;1.60;;
2001;SDS011;1003;48.002;7.788;2023-08-30T14:52:28;1.50;;;1.40;;
2001;SDS011;1003;48.002;7.788;2023-08-30T14:54:55;1.80;;;1.70;;
2001;SDS011;1003;48.002;7.788;2023-08-30T14:57:22;2.47;;;1.60;;
2001;SDS011;1003;48.002;7.788;2023-08-30T14:59:51;2.10;;;1.90;;
2001;SDS011;1003;48.002;7.788;2023-08-30T15:02:19;1.80;;;1.70;;
2001;SDS011;1003;48.002;7.788;2023-08-30T15:04:46;1.77;;;1.67;;
2001;SDS011;1003;48.002;7.788;2023-08-30T15:07:16;2.00;;;1.80;;
2001;SDS011;1003;48.002;7.788;2023-08-30T15:09:43;1.70;;;1.60;;
2001;SDS011;1003;48.002;7.788;2023-08-30T15:12:11;1.60;;;1.50;;
2001;SDS011;1003;48.002;7.788;2023-08-30T15:14:38;1.57;;;1.47;;
2001;SDS011;1003;48.002;7.788;2023-08-30T15:17:08;1.70;;;1.60;;
2001;SDS011;1003;48.002;7.788;2023-08-30T15:19:35;1.63;;;1.53;;
2001;SDS011;1003;48.002;7.788;2023-08-30T15:22:02;1.93;;;1.73;;